sensor_id;sensor_type;location;lat;lon;timestamp;P1;durP1;ratioP1;P2;durP2;ratioP2
51692;SDS011;37777;53.066;21.638;2023-01-31T00:03:15;7.18;;;5.07;;
51692;SDS011;37777;53.066;21.638;2023-01-31T00:10:17;7.18;;;3.40;;
51692;SDS011;37777;53.066;21.638;2023-01-31T00:17:19;7.90;;;4.50;;
51692;SDS011;37777;53.066;21.638;2023-01-31T00:24:22;3.38;;;3.20;;
51692;SDS011;37777;53.066;21.638;2023-01-31T00:31:24;4.70;;;4.28;;
51692;SDS011;37777;53.066;21.638;2023-01-31T00:38:28;9.90;;;4.40;;
51692;SDS011;37777;53.066;21.638;2023-01-31T00:45:30;9.55;;;3.83;;
51692;SDS011;37777;53.066;21.638;2023-01-31T00:52:32;3.15;;;2.88;;
51692;SDS011;37777;53.066;21.638;2023-01-31T00:59:35;9.48;;;4.07;;
51692;SDS011;37777;53.066;21.638;2023-01-31T01:06:37;13.30;;;3.88;;
51692;SDS011;37777;53.066;21.638;2023-01-31T01:13:41;4.03;;;3.55;;
51692;SDS011;37777;53.066;21.638;2023-01-31T01:20:43;5.35;;;4.18;;
51692;SDS011;37777;53.066;21.638;2023-01-31T01:27:46;2.40;;;2.25;;
51692;SDS011;37777;53.066;21.638;2023-01-31T01:34:48;3.05;;;2.80;;
51692;SDS011;37777;53.066;21.638;2023-01-31T01:41:50;6.05;;;3.55;;
51692;SDS011;37777;53.066;21.638;2023-01-31T01:48:54;13.18;;;3.78;;
51692;SDS011;37777;53.066;21.638;2023-01-31T01:56:01;6.45;;;4.13;;
51692;SDS011;37777;53.066;21.638;2023-01-31T02:03:07;2.95;;;2.75;;
51692;SDS011;37777;53.066;21.638;2023-01-31T02:10:11;3.70;;;3.40;;
51692;SDS011;37777;53.066;21.638;2023-01-31T02:17:17;6.80;;;3.35;;
51692;SDS011;37777;53.066;21.638;2023-01-31T02:24:21;2.65;;;2.53;;
51692;SDS011;37777;53.066;21.638;2023-01-31T02:46:16;2.70;;;2.60;;
51692;SDS011;37777;53.066;21.638;2023-01-31T03:00:32;2.15;;;2.05;;
51692;SDS011;37777;53.066;21.638;2023-01-31T03:07:36;7.40;;;3.42;;
51692;SDS011;37777;53.066;21.638;2023-01-31T03:15:27;3.33;;;3.03;;
51692;SDS011;37777;53.066;21.638;2023-01-31T03:22:12;4.80;;;3.60;;
51692;SDS011;37777;53.066;21.638;2023-01-31T03:29:17;2.90;;;2.67;;
51692;SDS011;37777;53.066;21.638;2023-01-31T03:51:14;6.85;;;3.88;;
51692;SDS011;37777;53.066;21.638;2023-01-31T03:58:21;4.78;;;3.42;;
51692;SDS011;37777;53.066;21.638;2023-01-31T04:05:26;5.57;;;2.67;;
51692;SDS011;37777;53.066;21.638;2023-01-31T04:12:35;10.80;;;3.95;;
51692;SDS011;37777;53.066;21.638;2023-01-31T04:19:38;9.25;;;3.60;;
51692;SDS011;37777;53.066;21.638;2023-01-31T04:26:40;5.80;;;3.78;;
51692;SDS011;37777;53.066;21.638;2023-01-31T04:33:42;17.42;;;3.85;;
51692;SDS011;37777;53.066;21.638;2023-01-31T04:40:44;10.50;;;3.15;;
51692;SDS011;37777;53.066;21.638;2023-01-31T04:47:46;8.02;;;3.20;;
51692;SDS011;37777;53.066;21.638;2023-01-31T04:54:48;4.90;;;2.83;;
51692;SDS011;37777;53.066;21.638;2023-01-31T05:01:50;4.07;;;2.72;;
51692;SDS011;37777;53.066;21.638;2023-01-31T05:08:52;15.15;;;3.25;;
51692;SDS011;37777;53.066;21.638;2023-01-31T05:15:55;13.50;;;3.00;;
51692;SDS011;37777;53.066;21.638;2023-01-31T05:22:58;13.80;;;3.50;;
51692;SDS011;37777;53.066;21.638;2023-01-31T05:30:00;4.60;;;3.70;;
51692;SDS011;37777;53.066;21.638;2023-01-31T05:37:03;17.48;;;3.13;;
51692;SDS011;37777;53.066;21.638;2023-01-31T05:44:05;11.18;;;2.90;;
51692;SDS011;37777;53.066;21.638;2023-01-31T05:51:07;4.13;;;3.35;;
51692;SDS011;37777;53.066;21.638;2023-01-31T05:58:09;11.32;;;3.50;;
51692;SDS011;37777;53.066;21.638;2023-01-31T06:05:11;2.30;;;2.20;;
51692;SDS011;37777;53.066;21.638;2023-01-31T06:12:13;4.35;;;2.97;;
51692;SDS011;37777;53.066;21.638;2023-01-31T06:19:16;4.32;;;3.22;;
51692;SDS011;37777;53.066;21.638;2023-01-31T06:26:18;9.50;;;3.20;;
51692;SDS011;37777;53.066;21.638;2023-01-31T06:33:20;7.60;;;3.72;;
51692;SDS011;37777;53.066;21.638;2023-01-31T06:40:31;7.72;;;3.22;;
51692;SDS011;37777;53.066;21.638;2023-01-31T06:47:34;12.60;;;3.85;;
51692;SDS011;37777;53.066;21.638;2023-01-31T06:54:36;10.98;;;6.72;;
51692;SDS011;37777;53.066;21.638;2023-01-31T07:01:38;10.23;;;4.78;;
51692;SDS011;37777;53.066;21.638;2023-01-31T07:08:40;4.68;;;4.32;;
51692;SDS011;37777;53.066;21.638;2023-01-31T07:15:42;18.80;;;4.20;;
51692;SDS011;37777;53.066;21.638;2023-01-31T07:22:52;16.75;;;4.38;;
51692;SDS011;37777;53.066;21.638;2023-01-31T07:29:57;9.38;;;3.17;;
51692;SDS011;37777;53.066;21.638;2023-01-31T07:36:59;11.50;;;3.38;;
51692;SDS011;37777;53.066;21.638;2023-01-31T07:44:01;12.50;;;2.95;;
51692;SDS011;37777;53.066;21.638;2023-01-31T07:51:03;10.45;;;3.55;;
51692;SDS011;37777;53.066;21.638;2023-01-31T07:58:05;5.05;;;3.70;;
51692;SDS011;37777;53.066;21.638;2023-01-31T08:05:08;11.65;;;2.83;;
51692;SDS011;37777;53.066;21.638;2023-01-31T08:12:11;6.22;;;3.50;;
51692;SDS011;37777;53.066;21.638;2023-01-31T08:19:13;5.18;;;2.88;;
51692;SDS011;37777;53.066;21.638;2023-01-31T08:26:17;5.32;;;2.97;;
51692;SDS011;37777;53.066;21.638;2023-01-31T08:33:20;2.38;;;2.28;;
51692;SDS011;37777;53.066;21.638;2023-01-31T08:40:22;4.50;;;2.95;;
51692;SDS011;37777;53.066;21.638;2023-01-31T08:47:25;5.70;;;3.15;;
51692;SDS011;37777;53.066;21.638;2023-01-31T08:54:26;2.85;;;2.30;;
51692;SDS011;37777;53.066;21.638;2023-01-31T09:01:29;12.73;;;3.10;;
51692;SDS011;37777;53.066;21.638;2023-01-31T09:08:31;4.47;;;2.92;;
51692;SDS011;37777;53.066;21.638;2023-01-31T09:15:33;4.55;;;2.90;;
51692;SDS011;37777;53.066;21.638;2023-01-31T09:22:36;6.18;;;3.10;;
51692;SDS011;37777;53.066;21.638;2023-01-31T09:29:38;10.27;;;3.42;;
51692;SDS011;37777;53.066;21.638;2023-01-31T09:36:40;4.20;;;2.65;;
51692;SDS011;37777;53.066;21.638;2023-01-31T09:43:47;4.35;;;2.63;;
51692;SDS011;37777;53.066;21.638;2023-01-31T09:50:53;2.90;;;2.60;;
51692;SDS011;37777;53.066;21.638;2023-01-31T09:57:59;7.63;;;2.28;;
51692;SDS011;37777;53.066;21.638;2023-01-31T10:12:15;5.05;;;3.22;;
51692;SDS011;37777;53.066;21.638;2023-01-31T10:19:21;6.80;;;3.00;;
51692;SDS011;37777;53.066;21.638;2023-01-31T10:26:30;6.43;;;2.80;;
51692;SDS011;37777;53.066;21.638;2023-01-31T10:40:39;4.03;;;2.80;;
51692;SDS011;37777;53.066;21.638;2023-01-31T10:47:50;4.03;;;2.50;;
51692;SDS011;37777;53.066;21.638;2023-01-31T11:02:34;5.57;;;2.77;;
51692;SDS011;37777;53.066;21.638;2023-01-31T11:09:37;14.65;;;3.80;;
51692;SDS011;37777;53.066;21.638;2023-01-31T11:16:41;2.72;;;2.47;;
51692;SDS011;37777;53.066;21.638;2023-01-31T11:23:43;6.43;;;2.78;;
51692;SDS011;37777;53.066;21.638;2023-01-31T11:30:46;4.57;;;2.60;;
51692;SDS011;37777;53.066;21.638;2023-01-31T11:37:51;6.25;;;2.85;;
51692;SDS011;37777;53.066;21.638;2023-01-31T11:52:20;3.22;;;2.50;;
51692;SDS011;37777;53.066;21.638;2023-01-31T11:59:25;4.00;;;2.67;;
51692;SDS011;37777;53.066;21.638;2023-01-31T12:06:33;5.28;;;2.90;;
51692;SDS011;37777;53.066;21.638;2023-01-31T12:13:53;6.43;;;3.35;;
51692;SDS011;37777;53.066;21.638;2023-01-31T12:28:31;6.35;;;3.13;;
51692;SDS011;37777;53.066;21.638;2023-01-31T12:43:29;3.22;;;2.80;;
51692;SDS011;37777;53.066;21.638;2023-01-31T12:50:47;7.10;;;3.42;;
51692;SDS011;37777;53.066;21.638;2023-01-31T12:58:08;10.55;;;4.20;;
51692;SDS011;37777;53.066;21.638;2023-01-31T13:05:23;7.88;;;3.53;;
51692;SDS011;37777;53.066;21.638;2023-01-31T13:12:29;7.40;;;3.80;;
51692;SDS011;37777;53.066;21.638;2023-01-31T13:27:27;9.63;;;4.53;;
51692;SDS011;37777;53.066;21.638;2023-01-31T13:34:37;3.53;;;3.00;;
51692;SDS011;37777;53.066;21.638;2023-01-31T13:41:44;12.70;;;5.45;;
51692;SDS011;37777;53.066;21.638;2023-01-31T13:48:47;11.15;;;4.32;;
51692;SDS011;37777;53.066;21.638;2023-01-31T13:56:00;9.85;;;3.40;;
51692;SDS011;37777;53.066;21.638;2023-01-31T14:03:08;6.75;;;3.40;;
51692;SDS011;37777;53.066;21.638;2023-01-31T14:10:24;9.73;;;3.47;;
51692;SDS011;37777;53.066;21.638;2023-01-31T14:31:47;10.15;;;3.70;;
51692;SDS011;37777;53.066;21.638;2023-01-31T15:00:59;9.80;;;3.50;;
51692;SDS011;37777;53.066;21.638;2023-01-31T15:15:49;13.00;;;4.50;;
51692;SDS011;37777;53.066;21.638;2023-01-31T15:22:45;4.10;;;3.63;;
51692;SDS011;37777;53.066;21.638;2023-01-31T15:30:32;4.00;;;3.25;;
51692;SDS011;37777;53.066;21.638;2023-01-31T15:37:33;10.82;;;5.03;;
51692;SDS011;37777;53.066;21.638;2023-01-31T15:44:48;14.27;;;3.72;;
51692;SDS011;37777;53.066;21.638;2023-01-31T15:59:29;15.75;;;4.60;;
51692;SDS011;37777;53.066;21.638;2023-01-31T16:06:37;30.80;;;8.23;;
51692;SDS011;37777;53.066;21.638;2023-01-31T16:13:44;24.58;;;9.88;;
51692;SDS011;37777;53.066;21.638;2023-01-31T16:20:54;12.57;;;7.82;;
51692;SDS011;37777;53.066;21.638;2023-01-31T16:28:04;29.67;;;11.05;;
51692;SDS011;37777;53.066;21.638;2023-01-31T16:35:19;19.00;;;8.30;;
51692;SDS011;37777;53.066;21.638;2023-01-31T16:42:24;18.73;;;6.95;;
51692;SDS011;37777;53.066;21.638;2023-01-31T16:49:35;29.38;;;7.20;;
51692;SDS011;37777;53.066;21.638;2023-01-31T16:56:40;13.48;;;5.60;;
51692;SDS011;37777;53.066;21.638;2023-01-31T17:03:58;17.20;;;5.68;;
51692;SDS011;37777;53.066;21.638;2023-01-31T17:18:44;15.88;;;5.57;;
51692;SDS011;37777;53.066;21.638;2023-01-31T17:25:56;5.53;;;2.83;;
51692;SDS011;37777;53.066;21.638;2023-01-31T17:40:10;7.60;;;5.40;;
51692;SDS011;37777;53.066;21.638;2023-01-31T17:47:17;13.07;;;4.65;;
51692;SDS011;37777;53.066;21.638;2023-01-31T17:54:23;23.95;;;5.70;;
51692;SDS011;37777;53.066;21.638;2023-01-31T18:01:32;13.10;;;5.28;;
51692;SDS011;37777;53.066;21.638;2023-01-31T18:08:39;17.40;;;5.35;;
51692;SDS011;37777;53.066;21.638;2023-01-31T18:16:03;23.27;;;5.25;;
51692;SDS011;37777;53.066;21.638;2023-01-31T18:23:23;16.53;;;8.20;;
51692;SDS011;37777;53.066;21.638;2023-01-31T18:30:40;25.73;;;10.35;;
51692;SDS011;37777;53.066;21.638;2023-01-31T18:37:57;17.52;;;8.32;;
51692;SDS011;37777;53.066;21.638;2023-01-31T18:45:19;7.95;;;5.40;;
51692;SDS011;37777;53.066;21.638;2023-01-31T18:52:29;10.73;;;5.07;;
51692;SDS011;37777;53.066;21.638;2023-01-31T18:59:35;5.15;;;3.80;;
51692;SDS011;37777;53.066;21.638;2023-01-31T19:06:43;13.02;;;5.50;;
51692;SDS011;37777;53.066;21.638;2023-01-31T19:13:54;12.50;;;6.22;;
51692;SDS011;37777;53.066;21.638;2023-01-31T19:20:59;15.63;;;6.18;;
51692;SDS011;37777;53.066;21.638;2023-01-31T19:28:05;6.80;;;4.40;;
51692;SDS011;37777;53.066;21.638;2023-01-31T19:35:17;13.25;;;6.25;;
51692;SDS011;37777;53.066;21.638;2023-01-31T19:42:20;12.40;;;5.28;;
51692;SDS011;37777;53.066;21.638;2023-01-31T19:49:27;7.10;;;5.55;;
51692;SDS011;37777;53.066;21.638;2023-01-31T19:56:30;10.73;;;5.43;;
51692;SDS011;37777;53.066;21.638;2023-01-31T20:03:38;8.27;;;5.25;;
51692;SDS011;37777;53.066;21.638;2023-01-31T20:10:43;9.23;;;5.10;;
51692;SDS011;37777;53.066;21.638;2023-01-31T20:17:47;20.20;;;6.47;;
51692;SDS011;37777;53.066;21.638;2023-01-31T20:24:51;20.30;;;5.70;;
51692;SDS011;37777;53.066;21.638;2023-01-31T20:31:55;18.70;;;7.38;;
51692;SDS011;37777;53.066;21.638;2023-01-31T20:38:59;6.20;;;4.07;;
51692;SDS011;37777;53.066;21.638;2023-01-31T20:46:03;12.00;;;7.00;;
51692;SDS011;37777;53.066;21.638;2023-01-31T20:53:15;15.82;;;6.38;;
51692;SDS011;37777;53.066;21.638;2023-01-31T21:00:20;10.55;;;5.70;;
51692;SDS011;37777;53.066;21.638;2023-01-31T21:07:24;10.10;;;5.78;;
51692;SDS011;37777;53.066;21.638;2023-01-31T21:14:27;13.13;;;6.65;;
51692;SDS011;37777;53.066;21.638;2023-01-31T21:21:30;9.38;;;6.13;;
51692;SDS011;37777;53.066;21.638;2023-01-31T21:28:34;14.82;;;6.93;;
51692;SDS011;37777;53.066;21.638;2023-01-31T21:35:36;9.30;;;6.10;;
51692;SDS011;37777;53.066;21.638;2023-01-31T21:42:38;18.52;;;9.20;;
51692;SDS011;37777;53.066;21.638;2023-01-31T21:49:43;12.25;;;6.90;;
51692;SDS011;37777;53.066;21.638;2023-01-31T21:56:45;6.97;;;4.18;;
51692;SDS011;37777;53.066;21.638;2023-01-31T22:03:48;13.95;;;7.53;;
51692;SDS011;37777;53.066;21.638;2023-01-31T22:10:57;4.60;;;4.18;;
51692;SDS011;37777;53.066;21.638;2023-01-31T22:18:00;5.03;;;4.57;;
51692;SDS011;37777;53.066;21.638;2023-01-31T22:25:02;10.85;;;5.65;;
51692;SDS011;37777;53.066;21.638;2023-01-31T22:32:06;8.90;;;5.70;;
51692;SDS011;37777;53.066;21.638;2023-01-31T22:39:10;14.18;;;5.15;;
51692;SDS011;37777;53.066;21.638;2023-01-31T22:46:14;5.80;;;4.55;;
51692;SDS011;37777;53.066;21.638;2023-01-31T22:53:17;9.10;;;5.57;;
51692;SDS011;37777;53.066;21.638;2023-01-31T23:00:19;14.32;;;8.00;;
51692;SDS011;37777;53.066;21.638;2023-01-31T23:07:22;12.43;;;5.93;;
51692;SDS011;37777;53.066;21.638;2023-01-31T23:14:24;5.57;;;4.32;;
51692;SDS011;37777;53.066;21.638;2023-01-31T23:21:26;9.52;;;5.50;;
51692;SDS011;37777;53.066;21.638;2023-01-31T23:28:28;5.80;;;4.72;;
51692;SDS011;37777;53.066;21.638;2023-01-31T23:35:31;7.97;;;5.85;;
51692;SDS011;37777;53.066;21.638;2023-01-31T23:42:33;7.45;;;3.20;;
51692;SDS011;37777;53.066;21.638;2023-01-31T23:49:35;5.53;;;4.82;;
51692;SDS011;37777;53.066;21.638;2023-01-31T23:56:37;3.42;;;3.17;;
